createdAt,value
2022-08-25T00:00:00.281Z,101450
2022-08-25T00:05:00.368Z,101420
2022-08-25T00:10:00.243Z,101420
2022-08-25T00:15:00.245Z,101420
2022-08-25T00:20:00.254Z,101440
2022-08-25T00:25:00.235Z,101430
2022-08-25T00:30:00.322Z,101410
2022-08-25T00:35:00.227Z,101440
2022-08-25T00:40:00.400Z,101430
2022-08-25T00:45:00.638Z,101440
2022-08-25T00:50:00.235Z,101420
2022-08-25T00:55:05.777Z,101450
2022-08-25T01:00:00.246Z,101440
2022-08-25T01:05:00.188Z,101430
2022-08-25T01:10:00.246Z,101440
2022-08-25T01:15:00.226Z,101420
2022-08-25T01:20:00.227Z,101420
2022-08-25T01:25:00.227Z,101420
2022-08-25T01:30:00.201Z,101420
2022-08-25T01:35:00.225Z,101440
2022-08-25T01:40:00.439Z,101430
2022-08-25T01:45:00.234Z,101430
2022-08-25T01:50:00.264Z,101430
2022-08-25T01:55:00.199Z,101420
2022-08-25T02:00:00.253Z,101440
2022-08-25T02:05:00.222Z,101430
2022-08-25T02:10:03.137Z,101430
2022-08-25T02:15:00.207Z,101430
2022-08-25T02:20:00.218Z,101430
2022-08-25T02:25:00.213Z,101430
2022-08-25T02:30:00.237Z,101450
2022-08-25T02:35:00.216Z,101440
2022-08-25T02:40:00.363Z,101430
2022-08-25T02:45:00.255Z,101420
2022-08-25T02:50:00.252Z,101430
2022-08-25T02:55:00.223Z,101410
2022-08-25T03:00:00.264Z,101410
2022-08-25T03:05:00.331Z,101420
2022-08-25T03:10:00.226Z,101400
2022-08-25T03:15:00.212Z,101390
2022-08-25T03:20:00.243Z,101390
2022-08-25T03:25:00.229Z,101370
2022-08-25T03:30:00.263Z,101380
2022-08-25T03:35:00.252Z,101390
2022-08-25T03:40:00.330Z,101370
2022-08-25T03:45:00.268Z,101380
2022-08-25T03:50:00.230Z,101380
2022-08-25T03:55:00.223Z,101400
2022-08-25T04:00:00.272Z,101390
2022-08-25T04:05:00.229Z,101370
2022-08-25T04:10:00.233Z,101360
2022-08-25T04:15:00.242Z,101360
2022-08-25T04:20:00.233Z,101370
2022-08-25T04:25:00.188Z,101380
2022-08-25T04:30:00.203Z,101360
2022-08-25T04:35:00.174Z,101360
2022-08-25T04:40:00.297Z,101350
2022-08-25T04:45:00.183Z,101370
2022-08-25T04:50:00.195Z,101340
2022-08-25T04:55:00.194Z,101340
2022-08-25T05:00:00.208Z,101340
2022-08-25T05:05:00.176Z,101360
2022-08-25T05:10:00.201Z,101370
2022-08-25T05:15:00.177Z,101360
2022-08-25T05:20:00.190Z,101360
2022-08-25T05:25:00.185Z,101360
2022-08-25T05:30:00.203Z,101360
2022-08-25T05:35:00.184Z,101360
2022-08-25T05:40:00.300Z,101360
2022-08-25T05:45:00.190Z,101360
2022-08-25T05:50:00.235Z,101370
2022-08-25T05:55:00.171Z,101370
2022-08-25T06:00:00.218Z,101370
2022-08-25T06:05:00.190Z,101370
2022-08-25T06:10:00.187Z,101360
2022-08-25T06:15:00.229Z,101380
2022-08-25T06:20:00.204Z,101360
2022-08-25T06:25:00.176Z,101380
2022-08-25T06:30:00.302Z,101380
2022-08-25T06:35:00.190Z,101380
2022-08-25T06:40:00.373Z,101380
2022-08-25T06:45:00.264Z,101390
2022-08-25T06:50:00.188Z,101360
2022-08-25T06:55:00.186Z,101390
2022-08-25T07:00:00.208Z,101390
2022-08-25T07:05:00.192Z,101380
2022-08-25T07:10:00.192Z,101370
2022-08-25T07:15:17.091Z,101390
2022-08-25T07:20:00.193Z,101350
2022-08-25T07:25:00.213Z,101360
2022-08-25T07:30:00.435Z,101370
2022-08-25T07:35:00.202Z,101380
2022-08-25T07:40:00.285Z,101380
2022-08-25T07:45:00.189Z,101400
2022-08-25T07:50:00.230Z,101380
2022-08-25T07:55:00.205Z,101400
2022-08-25T08:00:00.219Z,101390
2022-08-25T08:05:00.192Z,101380
2022-08-25T08:10:19.200Z,101370
2022-08-25T08:15:00.209Z,101350
2022-08-25T08:20:00.190Z,101370
2022-08-25T08:25:00.220Z,101370
2022-08-25T08:30:00.223Z,101340
2022-08-25T08:35:00.237Z,101350
2022-08-25T08:40:00.310Z,101330
2022-08-25T08:45:02.587Z,101340
2022-08-25T08:50:00.220Z,101320
2022-08-25T17:00:00.234Z,100980
2022-08-25T17:05:00.214Z,100970
2022-08-25T17:10:00.192Z,100970
2022-08-25T17:15:00.203Z,100940
2022-08-25T17:20:00.172Z,100970
2022-08-25T17:25:01.194Z,100980
2022-08-25T17:30:00.187Z,100970
2022-08-25T17:35:00.184Z,100960
2022-08-25T17:40:02.814Z,100970
2022-08-25T17:45:00.227Z,100970
2022-08-25T17:50:00.178Z,100980
2022-08-25T17:55:00.185Z,100980
2022-08-25T18:00:00.206Z,100960
2022-08-25T18:05:00.217Z,100970
2022-08-25T18:10:00.193Z,100980
2022-08-25T18:15:00.185Z,100980
2022-08-25T18:20:00.183Z,100970
2022-08-25T18:25:00.212Z,100980
2022-08-25T18:30:00.207Z,100990
2022-08-25T18:35:00.182Z,100970
2022-08-25T18:40:00.333Z,100990
2022-08-25T18:45:00.194Z,101020
2022-08-25T18:50:04.195Z,101000
2022-08-25T18:55:00.186Z,100990
2022-08-25T19:00:00.199Z,101010
2022-08-25T19:05:07.392Z,100990
2022-08-25T19:10:00.165Z,100990
2022-08-25T19:15:00.184Z,100990
2022-08-25T19:20:00.192Z,101010
2022-08-25T19:25:00.185Z,101000
2022-08-25T19:30:00.170Z,101000
2022-08-25T19:35:00.188Z,101000
2022-08-25T19:40:00.290Z,101010
2022-08-25T19:45:00.189Z,101020
2022-08-25T19:50:00.273Z,101010
2022-08-25T19:55:00.187Z,101020
2022-08-25T20:00:00.236Z,101030
2022-08-25T20:05:00.172Z,101040
2022-08-25T20:10:00.200Z,101060
2022-08-25T20:15:00.168Z,101050
2022-08-25T20:20:00.160Z,101060
2022-08-25T20:25:00.167Z,101080
2022-08-25T20:30:02.573Z,101060
2022-08-25T20:35:00.163Z,101050
2022-08-25T20:40:00.296Z,101080
2022-08-25T20:45:00.168Z,101090
2022-08-25T20:50:04.498Z,101080
2022-08-25T20:55:00.177Z,101090
2022-08-25T21:00:00.203Z,101100
2022-08-25T21:05:00.171Z,101120
2022-08-25T21:10:00.184Z,101110
2022-08-25T21:15:00.166Z,101130
2022-08-25T21:20:00.206Z,101130
2022-08-25T21:25:00.177Z,101130
2022-08-25T21:30:00.197Z,101120
2022-08-25T21:35:00.172Z,101120
2022-08-25T21:40:00.290Z,101130
2022-08-25T21:45:00.158Z,101120
2022-08-25T21:50:00.176Z,101130
2022-08-25T21:55:00.182Z,101140
2022-08-25T22:00:00.251Z,101140
2022-08-25T22:05:00.221Z,101140
2022-08-25T22:10:00.202Z,101130
2022-08-25T22:15:00.160Z,101140
2022-08-25T22:20:00.191Z,101130
2022-08-25T22:25:00.171Z,101140
2022-08-25T22:30:00.203Z,101140
2022-08-25T22:35:00.169Z,101130
2022-08-25T22:40:00.275Z,101150
2022-08-25T22:45:00.213Z,101170
2022-08-25T22:50:00.339Z,101140
2022-08-25T22:55:00.162Z,101170
2022-08-25T23:00:00.187Z,101170
2022-08-25T23:05:01.007Z,101160
2022-08-25T23:10:00.179Z,101170
2022-08-25T23:15:00.166Z,101160
2022-08-25T23:20:00.179Z,101170
2022-08-25T23:25:00.168Z,101180
2022-08-25T23:30:00.204Z,101160
2022-08-25T23:35:00.144Z,101170
2022-08-25T23:40:00.309Z,101150
2022-08-25T23:45:00.168Z,101150
2022-08-25T23:50:00.185Z,101170
2022-08-25T23:55:00.153Z,101160
